sensor_id;sensor_type;location;lat;lon;timestamp;pressure;altitude;pressure_sealevel;temperature;humidity
78170;BME280;67412;49.892;14.490;2023-09-18T00:01:19;97109.41;;;14.67;95.36
78170;BME280;67412;49.892;14.490;2023-09-18T00:03:45;97105.97;;;14.67;95.33
78170;BME280;67412;49.892;14.490;2023-09-18T00:06:10;97104.50;;;14.60;96.33
78170;BME280;67412;49.892;14.490;2023-09-18T00:08:38;97111.47;;;14.58;96.44
78170;BME280;67412;49.892;14.490;2023-09-18T00:11:04;97107.97;;;14.59;95.51
78170;BME280;67412;49.892;14.490;2023-09-18T00:13:29;97105.50;;;14.56;95.95
78170;BME280;67412;49.892;14.490;2023-09-18T00:15:55;97106.31;;;14.58;96.13
78170;BME280;67412;49.892;14.490;2023-09-18T00:18:20;97104.66;;;14.55;96.73
78170;BME280;67412;49.892;14.490;2023-09-18T00:20:46;97108.09;;;14.56;98.11
78170;BME280;67412;49.892;14.490;2023-09-18T00:23:13;97102.91;;;14.56;97.59
78170;BME280;67412;49.892;14.490;2023-09-18T00:25:40;97099.31;;;14.60;96.62
78170;BME280;67412;49.892;14.490;2023-09-18T00:28:08;97092.56;;;14.56;95.97
78170;BME280;67412;49.892;14.490;2023-09-18T00:30:34;97097.88;;;14.51;95.08
78170;BME280;67412;49.892;14.490;2023-09-18T00:32:59;97095.41;;;14.48;95.46
78170;BME280;67412;49.892;14.490;2023-09-18T00:35:24;97098.84;;;14.48;95.80
78170;BME280;67412;49.892;14.490;2023-09-18T00:37:50;97084.22;;;14.47;97.34
78170;BME280;67412;49.892;14.490;2023-09-18T00:40:15;97085.13;;;14.46;100.00
78170;BME280;67412;49.892;14.490;2023-09-18T00:42:41;97091.19;;;14.45;98.96
78170;BME280;67412;49.892;14.490;2023-09-18T00:45:06;97086.91;;;14.44;99.18
78170;BME280;67412;49.892;14.490;2023-09-18T00:47:33;97089.50;;;14.44;99.24
78170;BME280;67412;49.892;14.490;2023-09-18T00:49:58;97084.44;;;14.41;98.77
78170;BME280;67412;49.892;14.490;2023-09-18T00:52:24;97080.97;;;14.42;96.15
78170;BME280;67412;49.892;14.490;2023-09-18T00:54:50;97075.94;;;14.38;97.32
78170;BME280;67412;49.892;14.490;2023-09-18T00:57:17;97077.63;;;14.39;99.96
78170;BME280;67412;49.892;14.490;2023-09-18T00:59:43;97070.16;;;14.30;97.84
78170;BME280;67412;49.892;14.490;2023-09-18T01:02:08;97068.69;;;14.21;98.08
78170;BME280;67412;49.892;14.490;2023-09-18T01:04:34;97067.09;;;14.17;98.20
78170;BME280;67412;49.892;14.490;2023-09-18T01:07:00;97065.53;;;14.13;100.00
78170;BME280;67412;49.892;14.490;2023-09-18T01:09:30;97061.25;;;14.12;100.00
78170;BME280;67412;49.892;14.490;2023-09-18T01:17:05;97048.50;;;13.80;100.00
78170;BME280;67412;49.892;14.490;2023-09-18T01:19:45;97042.69;;;13.73;100.00
78170;BME280;67412;49.892;14.490;2023-09-18T01:22:13;97031.25;;;13.82;100.00
78170;BME280;67412;49.892;14.490;2023-09-18T01:24:39;97034.59;;;13.84;99.10
78170;BME280;67412;49.892;14.490;2023-09-18T01:27:10;97031.44;;;13.76;98.52
78170;BME280;67412;49.892;14.490;2023-09-18T01:29:36;97040.13;;;13.73;97.86
78170;BME280;67412;49.892;14.490;2023-09-18T01:32:01;97030.53;;;13.77;100.00
78170;BME280;67412;49.892;14.490;2023-09-18T01:34:33;97028.78;;;13.77;99.10
78170;BME280;67412;49.892;14.490;2023-09-18T01:37:00;97029.84;;;13.72;97.92
78170;BME280;67412;49.892;14.490;2023-09-18T01:39:25;97025.50;;;13.72;97.62
78170;BME280;67412;49.892;14.490;2023-09-18T01:41:55;97018.69;;;13.71;100.00
78170;BME280;67412;49.892;14.490;2023-09-18T01:44:21;97018.78;;;13.68;100.00
78170;BME280;67412;49.892;14.490;2023-09-18T01:46:46;97014.53;;;13.66;100.00
78170;BME280;67412;49.892;14.490;2023-09-18T01:49:14;97004.09;;;13.69;100.00
78170;BME280;67412;49.892;14.490;2023-09-18T01:51:39;97009.28;;;13.69;100.00
78170;BME280;67412;49.892;14.490;2023-09-18T01:54:04;97008.50;;;13.67;100.00
78170;BME280;67412;49.892;14.490;2023-09-18T01:56:30;96995.22;;;13.51;98.77
78170;BME280;67412;49.892;14.490;2023-09-18T01:58:55;97002.81;;;13.55;98.16
78170;BME280;67412;49.892;14.490;2023-09-18T02:01:20;96998.63;;;13.51;100.00
78170;BME280;67412;49.892;14.490;2023-09-18T02:03:46;96997.66;;;13.55;100.00
78170;BME280;67412;49.892;14.490;2023-09-18T02:06:12;97000.66;;;13.42;100.00
78170;BME280;67412;49.892;14.490;2023-09-18T02:08:37;97000.09;;;13.32;99.31
78170;BME280;67412;49.892;14.490;2023-09-18T02:11:03;97006.94;;;13.33;100.00
78170;BME280;67412;49.892;14.490;2023-09-18T02:13:29;97000.00;;;13.35;100.00
78170;BME280;67412;49.892;14.490;2023-09-18T02:15:55;96995.03;;;13.29;100.00
78170;BME280;67412;49.892;14.490;2023-09-18T02:18:21;96988.06;;;13.31;100.00
78170;BME280;67412;49.892;14.490;2023-09-18T02:20:46;96986.34;;;13.32;100.00
78170;BME280;67412;49.892;14.490;2023-09-18T02:23:17;96974.38;;;13.29;100.00
78170;BME280;67412;49.892;14.490;2023-09-18T02:25:43;96975.22;;;13.30;100.00
78170;BME280;67412;49.892;14.490;2023-09-18T02:28:09;96965.06;;;13.25;100.00
78170;BME280;67412;49.892;14.490;2023-09-18T02:30:34;96951.28;;;13.26;100.00
78170;BME280;67412;49.892;14.490;2023-09-18T02:33:00;96945.25;;;13.26;100.00
78170;BME280;67412;49.892;14.490;2023-09-18T02:35:28;96946.88;;;13.28;100.00
78170;BME280;67412;49.892;14.490;2023-09-18T02:37:53;96941.09;;;13.22;100.00
78170;BME280;67412;49.892;14.490;2023-09-18T02:40:19;96940.47;;;13.14;100.00
78170;BME280;67412;49.892;14.490;2023-09-18T02:42:44;96950.03;;;13.08;100.00
78170;BME280;67412;49.892;14.490;2023-09-18T02:45:09;96947.34;;;13.13;100.00
78170;BME280;67412;49.892;14.490;2023-09-18T02:47:35;96943.88;;;13.16;100.00
78170;BME280;67412;49.892;14.490;2023-09-18T02:50:03;96937.88;;;13.14;100.00
78170;BME280;67412;49.892;14.490;2023-09-18T02:52:30;96942.31;;;13.10;100.00
78170;BME280;67412;49.892;14.490;2023-09-18T02:54:55;96938.91;;;13.08;100.00
78170;BME280;67412;49.892;14.490;2023-09-18T02:57:21;96934.72;;;13.04;100.00
78170;BME280;67412;49.892;14.490;2023-09-18T02:59:46;96934.00;;;12.99;100.00
78170;BME280;67412;49.892;14.490;2023-09-18T03:02:11;96936.81;;;12.91;100.00
78170;BME280;67412;49.892;14.490;2023-09-18T03:04:37;96929.97;;;12.90;100.00
78170;BME280;67412;49.892;14.490;2023-09-18T03:07:02;96931.69;;;12.90;100.00
78170;BME280;67412;49.892;14.490;2023-09-18T03:09:27;96929.97;;;12.90;100.00
78170;BME280;67412;49.892;14.490;2023-09-18T03:11:53;96929.03;;;12.93;100.00
78170;BME280;67412;49.892;14.490;2023-09-18T03:14:24;96927.44;;;12.89;100.00
78170;BME280;67412;49.892;14.490;2023-09-18T03:16:49;96914.56;;;12.89;100.00
78170;BME280;67412;49.892;14.490;2023-09-18T03:19:15;96918.91;;;12.87;100.00
78170;BME280;67412;49.892;14.490;2023-09-18T03:21:40;96910.47;;;12.82;100.00
78170;BME280;67412;49.892;14.490;2023-09-18T03:24:06;96913.13;;;12.79;100.00
78170;BME280;67412;49.892;14.490;2023-09-18T03:26:31;96911.56;;;12.73;100.00
78170;BME280;67412;49.892;14.490;2023-09-18T03:28:57;96917.50;;;12.77;100.00
78170;BME280;67412;49.892;14.490;2023-09-18T03:31:22;96919.81;;;12.86;100.00
78170;BME280;67412;49.892;14.490;2023-09-18T03:33:47;96907.84;;;12.83;100.00
78170;BME280;67412;49.892;14.490;2023-09-18T03:36:13;96906.91;;;12.86;100.00
78170;BME280;67412;49.892;14.490;2023-09-18T03:38:39;96896.66;;;12.83;100.00
78170;BME280;67412;49.892;14.490;2023-09-18T03:41:04;96904.25;;;12.89;100.00
78170;BME280;67412;49.892;14.490;2023-09-18T03:43:29;96901.81;;;12.83;100.00
78170;BME280;67412;49.892;14.490;2023-09-18T03:45:54;96906.09;;;12.84;100.00
78170;BME280;67412;49.892;14.490;2023-09-18T03:48:20;96895.75;;;12.85;100.00
78170;BME280;67412;49.892;14.490;2023-09-18T03:50:47;96885.28;;;12.90;100.00
78170;BME280;67412;49.892;14.490;2023-09-18T03:53:12;96881.88;;;12.89;100.00
78170;BME280;67412;49.892;14.490;2023-09-18T03:55:37;96882.91;;;12.84;100.00
78170;BME280;67412;49.892;14.490;2023-09-18T03:58:04;96881.19;;;12.83;100.00
78170;BME280;67412;49.892;14.490;2023-09-18T04:00:30;96878.47;;;12.89;100.00
78170;BME280;67412;49.892;14.490;2023-09-18T04:02:55;96880.06;;;12.93;100.00
78170;BME280;67412;49.892;14.490;2023-09-18T04:05:20;96882.63;;;12.93;100.00
78170;BME280;67412;49.892;14.490;2023-09-18T04:07:46;96884.13;;;13.00;100.00
78170;BME280;67412;49.892;14.490;2023-09-18T04:10:12;96882.44;;;12.99;100.00
78170;BME280;67412;49.892;14.490;2023-09-18T04:12:44;96874.69;;;12.99;100.00
78170;BME280;67412;49.892;14.490;2023-09-18T04:15:13;96879.00;;;12.98;100.00
78170;BME280;67412;49.892;14.490;2023-09-18T04:17:39;96877.06;;;13.05;100.00
78170;BME280;67412;49.892;14.490;2023-09-18T04:20:05;96875.44;;;13.02;100.00
78170;BME280;67412;49.892;14.490;2023-09-18T04:22:31;96873.84;;;12.98;100.00
78170;BME280;67412;49.892;14.490;2023-09-18T04:24:56;96871.91;;;13.05;100.00
78170;BME280;67412;49.892;14.490;2023-09-18T04:27:21;96861.53;;;13.08;100.00
78170;BME280;67412;49.892;14.490;2023-09-18T04:29:47;96864.16;;;13.06;100.00
78170;BME280;67412;49.892;14.490;2023-09-18T04:32:12;96858.28;;;13.01;100.00
78170;BME280;67412;49.892;14.490;2023-09-18T04:34:37;96860.00;;;13.01;100.00
78170;BME280;67412;49.892;14.490;2023-09-18T04:37:04;96859.44;;;12.93;100.00
78170;BME280;67412;49.892;14.490;2023-09-18T04:39:30;96862.09;;;12.90;100.00
78170;BME280;67412;49.892;14.490;2023-09-18T04:41:55;96857.63;;;12.95;100.00
78170;BME280;67412;49.892;14.490;2023-09-18T04:44:20;96857.88;;;12.87;100.00
78170;BME280;67412;49.892;14.490;2023-09-18T04:46:46;96858.81;;;12.85;100.00
78170;BME280;67412;49.892;14.490;2023-09-18T04:49:11;96863.97;;;12.85;100.00
78170;BME280;67412;49.892;14.490;2023-09-18T04:51:38;96863.78;;;12.91;100.00
78170;BME280;67412;49.892;14.490;2023-09-18T04:54:04;96865.97;;;13.03;100.00
78170;BME280;67412;49.892;14.490;2023-09-18T04:56:29;96871.47;;;13.20;100.00
78170;BME280;67412;49.892;14.490;2023-09-18T04:58:55;96883.22;;;13.30;100.00
78170;BME280;67412;49.892;14.490;2023-09-18T05:01:20;96875.50;;;13.29;100.00
78170;BME280;67412;49.892;14.490;2023-09-18T05:03:46;96879.06;;;13.25;100.00
78170;BME280;67412;49.892;14.490;2023-09-18T05:06:13;96870.56;;;13.23;100.00
78170;BME280;67412;49.892;14.490;2023-09-18T05:08:39;96874.03;;;13.22;100.00
78170;BME280;67412;49.892;14.490;2023-09-18T05:11:04;96878.31;;;13.21;100.00
78170;BME280;67412;49.892;14.490;2023-09-18T05:13:30;96874.75;;;13.25;100.00
78170;BME280;67412;49.892;14.490;2023-09-18T05:15:55;96863.59;;;13.25;100.00
78170;BME280;67412;49.892;14.490;2023-09-18T05:18:20;96861.00;;;13.25;100.00
78170;BME280;67412;49.892;14.490;2023-09-18T05:20:46;96847.03;;;13.32;100.00
78170;BME280;67412;49.892;14.490;2023-09-18T05:23:12;96853.63;;;13.40;100.00
78170;BME280;67412;49.892;14.490;2023-09-18T05:25:37;96839.63;;;13.47;100.00
78170;BME280;67412;49.892;14.490;2023-09-18T05:28:04;96836.91;;;13.52;100.00
78170;BME280;67412;49.892;14.490;2023-09-18T05:30:32;96832.97;;;13.67;100.00
78170;BME280;67412;49.892;14.490;2023-09-18T05:33:00;96831.53;;;13.83;100.00
78170;BME280;67412;49.892;14.490;2023-09-18T05:35:30;96831.09;;;13.95;100.00
78170;BME280;67412;49.892;14.490;2023-09-18T05:37:56;96830.50;;;14.12;100.00
78170;BME280;67412;49.892;14.490;2023-09-18T05:40:22;96823.97;;;14.25;100.00
78170;BME280;67412;49.892;14.490;2023-09-18T05:42:47;96821.06;;;14.35;100.00
78170;BME280;67412;49.892;14.490;2023-09-18T05:45:13;96825.22;;;14.39;100.00
78170;BME280;67412;49.892;14.490;2023-09-18T05:47:40;96821.31;;;14.51;100.00
78170;BME280;67412;49.892;14.490;2023-09-18T05:50:06;96807.16;;;14.61;100.00
78170;BME280;67412;49.892;14.490;2023-09-18T05:52:32;96808.72;;;14.65;100.00
78170;BME280;67412;49.892;14.490;2023-09-18T05:54:58;96804.28;;;14.69;100.00
78170;BME280;67412;49.892;14.490;2023-09-18T05:57:24;96808.31;;;14.76;100.00
78170;BME280;67412;49.892;14.490;2023-09-18T05:59:49;96808.78;;;14.85;100.00
78170;BME280;67412;49.892;14.490;2023-09-18T06:02:15;96808.44;;;14.94;100.00
78170;BME280;67412;49.892;14.490;2023-09-18T06:04:41;96808.00;;;15.05;100.00
78170;BME280;67412;49.892;14.490;2023-09-18T06:07:07;96809.44;;;15.12;100.00
78170;BME280;67412;49.892;14.490;2023-09-18T06:09:32;96791.84;;;15.20;100.00
78170;BME280;67412;49.892;14.490;2023-09-18T06:11:57;96791.00;;;15.20;100.00
78170;BME280;67412;49.892;14.490;2023-09-18T06:14:24;96791.84;;;15.20;100.00
78170;BME280;67412;49.892;14.490;2023-09-18T06:16:50;96787.13;;;15.30;100.00
78170;BME280;67412;49.892;14.490;2023-09-18T06:19:16;96781.63;;;15.37;100.00
78170;BME280;67412;49.892;14.490;2023-09-18T06:21:42;96786.44;;;15.46;100.00
78170;BME280;67412;49.892;14.490;2023-09-18T06:24:08;96774.94;;;15.54;100.00
78170;BME280;67412;49.892;14.490;2023-09-18T06:26:33;96781.94;;;15.52;100.00
78170;BME280;67412;49.892;14.490;2023-09-18T06:28:58;96777.72;;;15.49;100.00
78170;BME280;67412;49.892;14.490;2023-09-18T06:31:24;96774.63;;;15.61;100.00
78170;BME280;67412;49.892;14.490;2023-09-18T06:33:49;96780.88;;;15.76;100.00
78170;BME280;67412;49.892;14.490;2023-09-18T06:36:14;96779.59;;;16.05;100.00
78170;BME280;67412;49.892;14.490;2023-09-18T06:38:40;96781.31;;;16.24;100.00
78170;BME280;67412;49.892;14.490;2023-09-18T06:41:05;96788.84;;;16.49;99.90
78170;BME280;67412;49.892;14.490;2023-09-18T06:43:30;96784.88;;;16.61;99.24
78170;BME280;67412;49.892;14.490;2023-09-18T06:45:56;96781.53;;;16.76;98.87
78170;BME280;67412;49.892;14.490;2023-09-18T06:48:23;96780.94;;;16.88;98.38
78170;BME280;67412;49.892;14.490;2023-09-18T06:50:48;96772.94;;;16.92;98.76
78170;BME280;67412;49.892;14.490;2023-09-18T06:53:13;96767.56;;;16.97;97.98
78170;BME280;67412;49.892;14.490;2023-09-18T06:55:39;96775.28;;;17.16;96.39
78170;BME280;67412;49.892;14.490;2023-09-18T06:58:04;96777.19;;;17.29;96.95
78170;BME280;67412;49.892;14.490;2023-09-18T07:00:29;96774.22;;;17.37;95.63
78170;BME280;67412;49.892;14.490;2023-09-18T07:02:55;96770.78;;;17.54;94.55
78170;BME280;67412;49.892;14.490;2023-09-18T07:05:20;96772.88;;;17.64;93.70
78170;BME280;67412;49.892;14.490;2023-09-18T07:07:45;96766.22;;;17.76;92.37
78170;BME280;67412;49.892;14.490;2023-09-18T07:10:11;96767.25;;;17.89;93.89
78170;BME280;67412;49.892;14.490;2023-09-18T07:12:37;96771.56;;;18.06;93.69
78170;BME280;67412;49.892;14.490;2023-09-18T07:15:03;96768.22;;;18.19;89.49
78170;BME280;67412;49.892;14.490;2023-09-18T07:17:31;96770.00;;;18.34;87.66
78170;BME280;67412;49.892;14.490;2023-09-18T07:19:57;96771.06;;;18.48;87.77
78170;BME280;67412;49.892;14.490;2023-09-18T07:22:22;96767.78;;;18.60;86.36
78170;BME280;67412;49.892;14.490;2023-09-18T07:24:47;96769.81;;;18.70;85.49
78170;BME280;67412;49.892;14.490;2023-09-18T07:27:13;96772.41;;;18.86;84.26
78170;BME280;67412;49.892;14.490;2023-09-18T07:29:38;96777.69;;;19.00;84.31
78170;BME280;67412;49.892;14.490;2023-09-18T07:32:04;96775.72;;;19.19;83.17
78170;BME280;67412;49.892;14.490;2023-09-18T07:34:29;96771.97;;;19.39;82.02
78170;BME280;67412;49.892;14.490;2023-09-18T07:36:55;96773.81;;;19.53;81.60
78170;BME280;67412;49.892;14.490;2023-09-18T07:39:21;96777.56;;;19.63;80.65
78170;BME280;67412;49.892;14.490;2023-09-18T07:41:47;96774.78;;;19.80;80.61
78170;BME280;67412;49.892;14.490;2023-09-18T07:44:18;96764.38;;;19.94;80.20
78170;BME280;67412;49.892;14.490;2023-09-18T07:46:44;96758.88;;;19.85;79.38
78170;BME280;67412;49.892;14.490;2023-09-18T07:49:09;96757.56;;;20.06;79.35
78170;BME280;67412;49.892;14.490;2023-09-18T07:51:34;96757.66;;;20.18;78.38
78170;BME280;67412;49.892;14.490;2023-09-18T07:54:00;96756.47;;;20.24;78.54
78170;BME280;67412;49.892;14.490;2023-09-18T07:56:26;96749.69;;;20.36;77.45
78170;BME280;67412;49.892;14.490;2023-09-18T07:58:52;96753.59;;;20.43;76.46
78170;BME280;67412;49.892;14.490;2023-09-18T08:01:17;96756.44;;;20.52;76.73
78170;BME280;67412;49.892;14.490;2023-09-18T08:03:43;96756.53;;;20.65;75.99
78170;BME280;67412;49.892;14.490;2023-09-18T08:06:08;96747.88;;;20.77;75.54
78170;BME280;67412;49.892;14.490;2023-09-18T08:08:33;96739.06;;;20.92;74.58
78170;BME280;67412;49.892;14.490;2023-09-18T08:11:06;96731.38;;;21.03;74.44
78170;BME280;67412;49.892;14.490;2023-09-18T08:13:32;96722.69;;;21.17;73.38
78170;BME280;67412;49.892;14.490;2023-09-18T08:15:57;96728.69;;;21.32;72.82
78170;BME280;67412;49.892;14.490;2023-09-18T08:18:22;96728.28;;;21.50;71.24
78170;BME280;67412;49.892;14.490;2023-09-18T08:20:51;96726.94;;;21.70;71.05
78170;BME280;67412;49.892;14.490;2023-09-18T08:23:17;96731.00;;;21.87;70.01
78170;BME280;67412;49.892;14.490;2023-09-18T08:25:42;96736.81;;;22.04;69.64
78170;BME280;67412;49.892;14.490;2023-09-18T08:28:07;96740.25;;;22.05;67.93
78170;BME280;67412;49.892;14.490;2023-09-18T08:30:33;96739.31;;;22.19;67.15
78170;BME280;67412;49.892;14.490;2023-09-18T08:32:58;96734.88;;;22.32;68.20
78170;BME280;67412;49.892;14.490;2023-09-18T08:35:24;96740.72;;;22.48;66.77
78170;BME280;67412;49.892;14.490;2023-09-18T08:37:54;96743.63;;;22.56;66.86
78170;BME280;67412;49.892;14.490;2023-09-18T08:40:19;96746.53;;;22.64;65.73
78170;BME280;67412;49.892;14.490;2023-09-18T08:42:47;96745.56;;;22.78;65.19
78170;BME280;67412;49.892;14.490;2023-09-18T08:45:25;96743.00;;;22.89;65.02
78170;BME280;67412;49.892;14.490;2023-09-18T08:47:54;96731.03;;;22.97;64.98
78170;BME280;67412;49.892;14.490;2023-09-18T08:50:19;96735.94;;;23.02;64.98
78170;BME280;67412;49.892;14.490;2023-09-18T08:52:45;96732.97;;;23.06;63.54
78170;BME280;67412;49.892;14.490;2023-09-18T08:55:11;96726.72;;;23.20;62.60
78170;BME280;67412;49.892;14.490;2023-09-18T08:57:38;96721.97;;;23.49;63.11
78170;BME280;67412;49.892;14.490;2023-09-18T09:00:05;96712.44;;;23.59;62.30
78170;BME280;67412;49.892;14.490;2023-09-18T09:02:33;96711.78;;;23.79;60.43
78170;BME280;67412;49.892;14.490;2023-09-18T09:04:58;96696.75;;;23.92;60.08
78170;BME280;67412;49.892;14.490;2023-09-18T09:07:25;96692.22;;;23.83;60.45
78170;BME280;67412;49.892;14.490;2023-09-18T09:09:51;96701.78;;;23.95;59.40
78170;BME280;67412;49.892;14.490;2023-09-18T09:12:45;96696.88;;;24.13;58.08
78170;BME280;67412;49.892;14.490;2023-09-18T09:15:04;96700.59;;;24.22;58.42
78170;BME280;67412;49.892;14.490;2023-09-18T09:17:30;96688.66;;;24.29;57.37
78170;BME280;67412;49.892;14.490;2023-09-18T09:20:08;96691.47;;;24.59;57.25
78170;BME280;67412;49.892;14.490;2023-09-18T09:22:34;96687.13;;;24.80;58.06
78170;BME280;67412;49.892;14.490;2023-09-18T09:24:59;96684.59;;;24.90;56.36
78170;BME280;67412;49.892;14.490;2023-09-18T09:27:25;96689.63;;;24.93;54.97
78170;BME280;67412;49.892;14.490;2023-09-18T09:30:00;96693.28;;;25.01;54.61
78170;BME280;67412;49.892;14.490;2023-09-18T09:32:29;96690.84;;;25.10;54.82
78170;BME280;67412;49.892;14.490;2023-09-18T09:34:59;96691.31;;;25.15;55.42
78170;BME280;67412;49.892;14.490;2023-09-18T09:37:32;96688.31;;;25.40;54.39
78170;BME280;67412;49.892;14.490;2023-09-18T09:40:03;96677.16;;;25.47;53.40
78170;BME280;67412;49.892;14.490;2023-09-18T09:42:39;96672.13;;;25.24;54.61
78170;BME280;67412;49.892;14.490;2023-09-18T09:45:13;96658.09;;;25.14;54.28
78170;BME280;67412;49.892;14.490;2023-09-18T09:47:39;96663.66;;;24.99;54.36
78170;BME280;67412;49.892;14.490;2023-09-18T09:50:10;96669.34;;;25.16;53.48
78170;BME280;67412;49.892;14.490;2023-09-18T09:52:36;96654.72;;;25.23;52.82
78170;BME280;67412;49.892;14.490;2023-09-18T09:55:21;96655.78;;;25.20;54.73
78170;BME280;67412;49.892;14.490;2023-09-18T09:57:49;96655.34;;;25.36;53.51
78170;BME280;67412;49.892;14.490;2023-09-18T10:00:14;96654.31;;;25.48;54.00
78170;BME280;67412;49.892;14.490;2023-09-18T10:02:57;96647.53;;;25.45;53.25
78170;BME280;67412;49.892;14.490;2023-09-18T10:05:26;96651.81;;;25.46;52.46
78170;BME280;67412;49.892;14.490;2023-09-18T10:07:54;96647.53;;;25.45;53.86
78170;BME280;67412;49.892;14.490;2023-09-18T10:10:25;96649.13;;;25.58;52.44
78170;BME280;67412;49.892;14.490;2023-09-18T10:12:52;96633.25;;;25.69;52.74
78170;BME280;67412;49.892;14.490;2023-09-18T10:15:19;96636.34;;;25.74;52.01
78170;BME280;67412;49.892;14.490;2023-09-18T10:17:47;96633.22;;;25.89;52.98
78170;BME280;67412;49.892;14.490;2023-09-18T10:20:14;96634.00;;;26.11;51.84
78170;BME280;67412;49.892;14.490;2023-09-18T10:22:52;96635.66;;;26.52;50.63
78170;BME280;67412;49.892;14.490;2023-09-18T10:25:29;96632.34;;;26.69;48.33
78170;BME280;67412;49.892;14.490;2023-09-18T10:27:57;96620.13;;;26.58;49.11
78170;BME280;67412;49.892;14.490;2023-09-18T10:30:27;96627.06;;;26.78;47.76
78170;BME280;67412;49.892;14.490;2023-09-18T10:32:52;96621.03;;;26.87;46.29
78170;BME280;67412;49.892;14.490;2023-09-18T10:35:19;96621.25;;;27.04;47.75
78170;BME280;67412;49.892;14.490;2023-09-18T10:37:46;96618.22;;;27.08;47.52
78170;BME280;67412;49.892;14.490;2023-09-18T10:40:13;96617.09;;;27.11;47.67
78170;BME280;67412;49.892;14.490;2023-09-18T10:42:40;96605.59;;;26.92;46.97
78170;BME280;67412;49.892;14.490;2023-09-18T10:45:08;96612.66;;;26.73;48.25
78170;BME280;67412;49.892;14.490;2023-09-18T10:47:42;96614.34;;;26.83;46.82
78170;BME280;67412;49.892;14.490;2023-09-18T10:50:10;96603.50;;;26.96;46.73
78170;BME280;67412;49.892;14.490;2023-09-18T10:52:38;96600.03;;;27.15;45.48
78170;BME280;67412;49.892;14.490;2023-09-18T10:55:11;96593.69;;;27.45;43.84
78170;BME280;67412;49.892;14.490;2023-09-18T10:57:37;96589.72;;;27.31;43.87
78170;BME280;67412;49.892;14.490;2023-09-18T11:00:03;96598.97;;;27.64;43.11
78170;BME280;67412;49.892;14.490;2023-09-18T11:02:41;96601.00;;;27.79;42.31
78170;BME280;67412;49.892;14.490;2023-09-18T11:05:07;96589.28;;;27.92;43.05
78170;BME280;67412;49.892;14.490;2023-09-18T11:07:32;96594.13;;;27.96;43.08
78170;BME280;67412;49.892;14.490;2023-09-18T11:09:57;96591.84;;;28.01;41.71
78170;BME280;67412;49.892;14.490;2023-09-18T11:12:43;96593.09;;;28.07;42.52
78170;BME280;67412;49.892;14.490;2023-09-18T11:15:09;96594.59;;;28.19;41.59
78170;BME280;67412;49.892;14.490;2023-09-18T11:17:59;96597.28;;;28.27;41.11
78170;BME280;67412;49.892;14.490;2023-09-18T11:20:24;96604.50;;;27.98;42.33
78170;BME280;67412;49.892;14.490;2023-09-18T11:22:59;96599.81;;;28.28;41.58
78170;BME280;67412;49.892;14.490;2023-09-18T11:28:01;96594.66;;;28.27;40.73
78170;BME280;67412;49.892;14.490;2023-09-18T11:30:28;96595.75;;;28.34;41.55
78170;BME280;67412;49.892;14.490;2023-09-18T11:32:54;96596.13;;;28.39;42.13
78170;BME280;67412;49.892;14.490;2023-09-18T11:35:20;96589.84;;;28.58;42.33
78170;BME280;67412;49.892;14.490;2023-09-18T11:37:47;96595.75;;;28.52;42.14
78170;BME280;67412;49.892;14.490;2023-09-18T11:40:31;96591.75;;;28.30;41.37
78170;BME280;67412;49.892;14.490;2023-09-18T11:43:27;96598.66;;;28.04;42.64
78170;BME280;67412;49.892;14.490;2023-09-18T11:45:57;96602.34;;;28.20;43.28
78170;BME280;67412;49.892;14.490;2023-09-18T11:48:24;96591.88;;;28.28;40.93
78170;BME280;67412;49.892;14.490;2023-09-18T11:50:52;96591.97;;;28.37;40.77
78170;BME280;67412;49.892;14.490;2023-09-18T11:53:17;96588.50;;;28.54;41.87
78170;BME280;67412;49.892;14.490;2023-09-18T11:55:44;96587.03;;;28.69;39.91
78170;BME280;67412;49.892;14.490;2023-09-18T11:58:10;96581.38;;;28.82;41.01
78170;BME280;67412;49.892;14.490;2023-09-18T12:00:36;96573.50;;;28.90;40.45
78170;BME280;67412;49.892;14.490;2023-09-18T12:03:22;96573.59;;;29.23;39.68
78170;BME280;67412;49.892;14.490;2023-09-18T12:05:56;96570.59;;;29.44;38.97
78170;BME280;67412;49.892;14.490;2023-09-18T12:08:23;96575.44;;;29.49;39.36
78170;BME280;67412;49.892;14.490;2023-09-18T12:10:53;96561.53;;;29.03;38.59
78170;BME280;67412;49.892;14.490;2023-09-18T12:13:18;96560.97;;;29.17;39.96
78170;BME280;67412;49.892;14.490;2023-09-18T12:15:44;96566.06;;;29.11;39.99
78170;BME280;67412;49.892;14.490;2023-09-18T12:18:10;96566.78;;;29.39;39.07
78170;BME280;67412;49.892;14.490;2023-09-18T12:20:50;96561.31;;;29.40;39.19
78170;BME280;67412;49.892;14.490;2023-09-18T12:23:16;96542.69;;;29.24;40.56
78170;BME280;67412;49.892;14.490;2023-09-18T12:25:46;96546.63;;;29.20;40.09
78170;BME280;67412;49.892;14.490;2023-09-18T12:28:13;96548.50;;;29.10;39.49
78170;BME280;67412;49.892;14.490;2023-09-18T12:30:40;96542.56;;;29.08;40.46
78170;BME280;67412;49.892;14.490;2023-09-18T12:33:05;96545.13;;;29.00;40.32
78170;BME280;67412;49.892;14.490;2023-09-18T12:35:31;96544.47;;;28.98;41.93
78170;BME280;67412;49.892;14.490;2023-09-18T12:38:01;96548.41;;;28.94;40.89
78170;BME280;67412;49.892;14.490;2023-09-18T12:40:30;96552.75;;;29.03;41.85
78170;BME280;67412;49.892;14.490;2023-09-18T12:42:58;96549.84;;;28.88;40.61
78170;BME280;67412;49.892;14.490;2023-09-18T12:45:26;96551.00;;;28.86;41.06
78170;BME280;67412;49.892;14.490;2023-09-18T12:47:53;96550.13;;;29.03;41.27
78170;BME280;67412;49.892;14.490;2023-09-18T12:50:19;96548.22;;;29.13;41.61
78170;BME280;67412;49.892;14.490;2023-09-18T12:52:44;96550.38;;;28.92;41.75